This is the latest recevied weather packets stored in our database for station/object IZ8NVY-10. If no packets are shown the sender has not sent any weather packets the latest 10 day(s).
| Time | Temp. | Humidity | Pressure | Rain* | Wind** | Luminosity | Snow |
|---|---|---|---|---|---|---|---|
| 1778138033 | 28.89° C | 58% | 977.5 hPa | - | - | - | - |
| 1778134429 | 20.56° C | 68% | 977.5 hPa | - | - | - | - |
| 1778130828 | 16.67° C | 70% | 977.6 hPa | - | - | - | - |
| 1778127228 | 16.11° C | 68% | 977.2 hPa | - | - | - | - |
| 1778123637 | 17.22° C | 68% | 977.5 hPa | - | - | - | - |
| 1778120030 | 16.11° C | 68% | 978.2 hPa | - | - | - | - |
| 1778116430 | 16.11° C | 68% | 978 hPa | - | - | - | - |
| 1778112832 | 16.11° C | 67% | 978.4 hPa | - | - | - | - |
| 1778109230 | 16.11° C | 63% | 978.7 hPa | - | - | - | - |
| 1778105625 | 16.67° C | 60% | 978.9 hPa | - | - | - | - |
| 1778102028 | 18.33° C | 54% | 978.8 hPa | - | - | - | - |
| 1778098426 | 19.44° C | 53% | 979.3 hPa | - | - | - | - |
| 1778094825 | 20.56° C | 54% | 979 hPa | - | - | - | - |
| 1778091224 | 20.56° C | 52% | 977.9 hPa | - | - | - | - |
| 1778087624 | 21.67° C | 50% | 977.5 hPa | - | - | - | - |
| 1778084024 | 23.89° C | 44% | 977.7 hPa | - | - | - | - |
| 1778080425 | 27.22° C | 36% | 977.1 hPa | - | - | - | - |
| 1778076825 | 30° C | 32% | 976.8 hPa | - | - | - | - |
| 1778073224 | 30° C | 33% | 977.2 hPa | - | - | - | - |
| 1778069623 | 29.44° C | 33% | 977.5 hPa | - | - | - | - |
| 1778066022 | 27.78° C | 41% | 977.4 hPa | - | - | - | - |
| 1778062421 | 28.89° C | 40% | 977.7 hPa | - | - | - | - |
| 1778058824 | 28.33° C | 42% | 978 hPa | - | - | - | - |
| 1778055224 | 23.89° C | 49% | 978.2 hPa | - | - | - | - |
| 1778051622 | 22.78° C | 50% | 978.2 hPa | - | - | - | - |
* Rain since midnight (hover to see other rain measurements)
** Current wind speed in m/s (hover to see current wind gust speed)